Time;durP1;ratioP1;P1;durP2;ratioP2;P2;SDS_P1;SDS_P2;PMS_P1;PMS_P2;Temp;Humidity;BMP_temperature;BMP_pressure;BME280_temperature;BME280_humidity;BME280_pressure;Samples;Min_cycle;Max_cycle;Signal;HPM_P1;HPM_P2
2021/10/13 00:01:49;;;;;;;1.42;1.33;;;7.70;96.80;;;;;;5025551;28;20030;-67
2021/10/13 00:04:15;;;;;;;2.05;1.25;;;7.70;96.80;;;;;;5022576;28;20143;-67
2021/10/13 00:06:41;;;;;;;1.40;1.30;;;7.70;96.90;;;;;;5028458;28;20172;-67
2021/10/13 00:09:06;;;;;;;4.25;1.65;;;7.60;96.80;;;;;;5020517;28;20026;-67
2021/10/13 00:11:41;;;;;;;2.03;1.48;;;7.70;96.90;;;;;;5024525;28;20037;-67
2021/10/13 00:14:08;;;;;;;1.80;1.42;;;7.60;96.90;;;;;;5022184;28;20036;-67
2021/10/13 00:16:35;;;;;;;2.72;1.63;;;7.60;97.10;;;;;;5027566;28;20044;-67
2021/10/13 00:19:00;;;;;;;2.53;1.77;;;7.60;97.20;;;;;;5022267;28;20071;-67
2021/10/13 00:21:26;;;;;;;1.95;1.50;;;7.70;97.10;;;;;;5029295;28;20402;-68
2021/10/13 00:23:52;;;;;;;2.35;1.60;;;7.60;97.20;;;;;;5029289;28;20037;-67
2021/10/13 00:26:17;;;;;;;1.92;1.40;;;7.60;97.20;;;;;;5028870;28;20026;-67
2021/10/13 00:28:43;;;;;;;1.88;1.40;;;7.70;97.20;;;;;;5024459;28;20033;-67
2021/10/13 00:31:09;;;;;;;2.88;2.35;;;7.70;97.20;;;;;;5025962;28;20038;-68
2021/10/13 00:33:35;;;;;;;2.30;1.60;;;7.60;97.30;;;;;;5023252;28;20060;-67
2021/10/13 00:36:01;;;;;;;3.22;1.65;;;7.70;97.30;;;;;;5024328;28;20063;-67
2021/10/13 00:38:27;;;;;;;1.95;1.70;;;7.60;97.30;;;;;;5020933;28;20033;-67
2021/10/13 00:40:52;;;;;;;2.53;1.73;;;7.70;97.20;;;;;;5025747;28;20512;-68
2021/10/13 00:43:18;;;;;;;1.88;1.70;;;7.70;97.20;;;;;;5027470;28;20037;-68
2021/10/13 00:45:44;;;;;;;1.95;1.58;;;7.70;97.30;;;;;;5025293;28;20115;-68
2021/10/13 00:48:10;;;;;;;3.50;1.35;;;7.70;97.10;;;;;;5028212;28;20060;-68
2021/10/13 00:50:36;;;;;;;2.17;1.70;;;7.70;97.10;;;;;;5026216;28;20041;-68
2021/10/13 00:53:02;;;;;;;1.40;1.30;;;7.70;97.10;;;;;;5026883;28;20505;-68
2021/10/13 00:55:30;;;;;;;1.83;1.60;;;7.70;97.30;;;;;;5019668;28;20060;-68
2021/10/13 00:57:56;;;;;;;2.07;1.53;;;7.80;97.00;;;;;;5025886;28;20022;-68
2021/10/13 01:00:23;;;;;;;2.30;1.70;;;7.80;97.10;;;;;;5024697;28;20025;-68
2021/10/13 01:03:33;;;;;;;1.55;1.40;;;7.80;97.10;;;;;;5022785;28;20122;-68
2021/10/13 01:06:16;;;;;;;1.55;1.45;;;7.90;97.00;;;;;;4983880;28;20538;-68
2021/10/13 01:08:52;;;;;;;1.50;1.40;;;7.80;97.00;;;;;;4981310;28;20034;-68
2021/10/13 01:11:58;;;;;;;1.83;1.73;;;7.90;97.00;;;;;;5010927;28;20071;-68
2021/10/13 01:14:38;;;;;;;1.50;1.40;;;7.90;96.90;;;;;;5023955;28;20116;-68
2021/10/13 01:17:11;;;;;;;1.85;1.70;;;7.90;97.00;;;;;;5023447;28;20040;-68
2021/10/13 01:19:55;;;;;;;3.80;1.77;;;7.80;97.10;;;;;;5027774;28;20057;-68
2021/10/13 01:22:48;;;;;;;3.13;1.75;;;7.80;97.20;;;;;;5030939;28;20025;-68
2021/10/13 01:25:25;;;;;;;1.80;1.67;;;7.80;97.30;;;;;;5030109;28;20030;-68
2021/10/13 01:28:01;;;;;;;2.40;1.70;;;7.70;97.40;;;;;;5029584;28;20479;-68
2021/10/13 01:30:37;;;;;;;3.10;2.08;;;7.80;97.40;;;;;;5025906;28;20037;-68
2021/10/13 01:33:08;;;;;;;2.80;2.03;;;7.80;97.30;;;;;;5031137;28;20510;-68
2021/10/13 01:35:42;;;;;;;3.33;2.03;;;7.80;97.20;;;;;;5031991;28;20060;-69
2021/10/13 01:38:13;;;;;;;3.92;2.05;;;7.80;97.10;;;;;;5029745;28;20049;-68
2021/10/13 01:40:40;;;;;;;3.50;1.90;;;7.90;97.10;;;;;;5030457;28;20032;-68
2021/10/13 01:43:06;;;;;;;2.90;2.20;;;7.90;97.20;;;;;;5026742;28;20030;-68
2021/10/13 01:45:33;;;;;;;4.28;2.55;;;7.90;97.30;;;;;;5020031;28;20041;-68
2021/10/13 01:48:01;;;;;;;2.95;2.10;;;7.90;97.30;;;;;;5026394;28;20076;-68
2021/10/13 01:50:27;;;;;;;2.65;2.10;;;7.90;97.40;;;;;;5031304;28;20104;-68
2021/10/13 01:52:54;;;;;;;4.25;2.33;;;7.90;97.30;;;;;;5027973;28;20500;-68
2021/10/13 01:55:21;;;;;;;4.57;2.45;;;7.90;97.10;;;;;;5028732;28;20083;-68
2021/10/13 01:57:50;;;;;;;3.88;2.30;;;7.90;97.00;;;;;;5027506;28;20029;-69
2021/10/13 02:00:17;;;;;;;2.85;2.35;;;7.90;97.00;;;;;;5023947;28;20039;-68
2021/10/13 02:02:46;;;;;;;3.38;2.70;;;7.90;97.10;;;;;;5025134;28;20445;-68
2021/10/13 02:05:14;;;;;;;2.85;2.30;;;7.90;97.10;;;;;;5027394;28;20026;-68
2021/10/13 02:07:42;;;;;;;4.15;2.53;;;7.90;97.20;;;;;;5030132;28;20032;-69
2021/10/13 02:10:10;;;;;;;2.85;2.38;;;7.80;97.20;;;;;;5027171;28;20029;-68
2021/10/13 02:12:37;;;;;;;;;;;7.80;97.10;;;;;;5030655;28;20040;-68
2021/10/13 02:15:05;;;;;;;4.18;2.30;;;7.80;97.30;;;;;;5027115;28;19960;-68
2021/10/13 02:17:33;;;;;;;2.67;2.42;;;7.80;97.10;;;;;;5028369;28;20021;-68
2021/10/13 02:20:01;;;;;;;3.88;2.33;;;7.80;97.10;;;;;;5021692;28;20029;-68
2021/10/13 02:22:31;;;;;;;4.32;2.85;;;7.90;97.10;;;;;;5021274;28;20185;-69
2021/10/13 02:24:57;;;;;;;4.35;2.90;;;7.80;97.20;;;;;;5026715;28;20492;-68
2021/10/13 02:27:51;;;;;;;4.45;2.92;;;7.70;97.40;;;;;;5030166;28;20036;-68
2021/10/13 02:30:16;;;;;;;4.30;2.72;;;7.80;97.40;;;;;;5028560;28;20029;-68
2021/10/13 02:32:42;;;;;;;5.53;3.08;;;7.80;97.30;;;;;;5027068;28;20041;-68
2021/10/13 02:35:09;;;;;;;5.57;3.20;;;7.80;97.30;;;;;;5022201;28;20044;-68
2021/10/13 02:37:34;;;;;;;4.35;3.17;;;7.70;97.40;;;;;;5028150;28;20026;-68
2021/10/13 02:40:00;;;;;;;6.72;3.47;;;7.70;97.40;;;;;;5027866;28;20083;-68
2021/10/13 02:42:26;;;;;;;7.15;3.38;;;7.80;97.30;;;;;;5028157;28;20033;-68
2021/10/13 02:44:52;;;;;;;5.38;3.50;;;7.70;97.40;;;;;;5030391;28;20033;-68
2021/10/13 02:47:25;;;;;;;5.18;2.90;;;7.80;97.40;;;;;;5026517;28;20482;-68
2021/10/13 02:50:13;;;;;;;3.42;2.90;;;7.70;97.30;;;;;;5025697;28;20032;-68
2021/10/13 02:53:16;;;;;;;5.53;3.80;;;7.70;97.30;;;;;;5026460;28;20087;-68
2021/10/13 02:55:54;;;;;;;5.32;3.35;;;7.70;97.40;;;;;;5027870;28;20436;-68
2021/10/13 02:59:12;;;;;;;5.00;3.22;;;7.70;97.50;;;;;;5027283;28;20025;-68
2021/10/13 03:01:40;;;;;;;8.32;4.30;;;7.70;97.60;;;;;;5024768;28;20091;-68
2021/10/13 03:04:13;;;;;;;8.20;3.67;;;7.70;97.70;;;;;;5029397;28;20025;-68
2021/10/13 03:06:45;;;;;;;6.13;3.72;;;7.70;97.70;;;;;;5028474;28;20033;-68
2021/10/13 03:09:11;;;;;;;6.85;4.32;;;7.60;97.70;;;;;;5024620;28;20030;-68
2021/10/13 03:11:38;;;;;;;6.30;3.55;;;7.60;97.70;;;;;;5028135;28;20494;-68
2021/10/13 03:14:06;;;;;;;4.25;3.08;;;7.60;97.90;;;;;;5026191;28;20099;-69
2021/10/13 03:16:33;;;;;;;3.22;2.70;;;7.50;97.80;;;;;;5025520;28;20030;-68
2021/10/13 03:19:00;;;;;;;3.50;2.42;;;7.50;96.60;;;;;;5027299;28;20021;-68
2021/10/13 03:21:27;;;;;;;2.55;1.95;;;7.40;96.20;;;;;;5026118;28;20033;-68
2021/10/13 03:23:53;;;;;;;2.60;1.90;;;7.30;95.90;;;;;;5028622;28;20506;-68
2021/10/13 03:26:19;;;;;;;3.10;2.38;;;7.30;95.20;;;;;;5025318;28;20064;-68
2021/10/13 03:28:45;;;;;;;2.70;2.35;;;7.40;95.40;;;;;;5028414;28;20112;-68
2021/10/13 03:31:11;;;;;;;3.17;2.20;;;7.30;95.70;;;;;;5046036;28;20520;-68
2021/10/13 03:33:37;;;;;;;5.57;2.53;;;7.40;96.10;;;;;;5029311;28;20053;-68
2021/10/13 03:36:07;;;;;;;2.55;2.35;;;7.30;96.10;;;;;;5026576;28;20037;-68
2021/10/13 03:38:33;;;;;;;3.15;2.15;;;7.40;96.00;;;;;;5026722;28;20061;-69
2021/10/13 03:40:59;;;;;;;2.90;2.35;;;7.30;96.20;;;;;;5024383;28;20087;-68
2021/10/13 03:43:25;;;;;;;4.60;3.15;;;7.40;96.40;;;;;;5026372;28;20433;-68
2021/10/13 03:45:51;;;;;;;2.97;2.25;;;7.40;96.40;;;;;;5029762;28;20029;-68
2021/10/13 03:48:18;;;;;;;4.63;2.78;;;7.50;96.50;;;;;;5024646;28;20030;-68
2021/10/13 03:50:43;;;;;;;3.38;2.70;;;7.40;96.50;;;;;;5025754;28;20052;-68
2021/10/13 03:53:09;;;;;;;3.17;2.50;;;7.50;96.50;;;;;;5026947;28;20057;-68
2021/10/13 03:55:35;;;;;;;4.93;2.70;;;7.50;96.50;;;;;;5028060;28;20033;-68
2021/10/13 03:58:01;;;;;;;2.83;2.40;;;7.50;96.30;;;;;;5028465;28;20044;-68
2021/10/13 04:00:27;;;;;;;3.42;2.40;;;7.50;96.20;;;;;;5026954;28;20437;-68
2021/10/13 04:02:53;;;;;;;2.72;2.40;;;7.50;96.10;;;;;;5028313;28;20033;-68
2021/10/13 04:05:18;;;;;;;4.10;2.53;;;7.50;96.20;;;;;;5029141;28;20038;-68
2021/10/13 04:07:44;;;;;;;3.22;2.70;;;7.40;96.40;;;;;;5026739;28;20032;-68
2021/10/13 04:10:13;;;;;;;6.13;3.10;;;7.30;96.40;;;;;;5028940;28;20043;-68
2021/10/13 04:12:39;;;;;;;4.07;2.78;;;7.30;96.50;;;;;;5026997;28;20037;-68
2021/10/13 04:15:07;;;;;;;3.80;2.78;;;7.30;96.40;;;;;;5026186;28;20501;-68
2021/10/13 04:17:34;;;;;;;4.43;2.97;;;7.30;96.20;;;;;;5024267;28;20441;-68
2021/10/13 04:20:04;;;;;;;3.85;2.70;;;7.20;96.10;;;;;;5022962;28;20061;-69
2021/10/13 04:22:30;;;;;;;4.38;2.92;;;7.10;96.30;;;;;;5030904;28;20107;-68
2021/10/13 04:24:57;;;;;;;7.18;2.78;;;7.10;96.20;;;;;;5019968;28;20037;-68
2021/10/13 04:27:22;;;;;;;3.92;2.80;;;7.00;96.20;;;;;;5027475;28;20037;-68
2021/10/13 04:29:48;;;;;;;5.57;3.03;;;7.00;96.60;;;;;;5025528;28;20395;-68
2021/10/13 04:32:14;;;;;;;5.40;3.00;;;6.90;96.70;;;;;;5023208;28;20044;-68
2021/10/13 04:34:39;;;;;;;6.55;3.10;;;7.00;96.40;;;;;;5023231;28;20056;-68
2021/10/13 04:37:06;;;;;;;8.27;4.10;;;6.90;95.90;;;;;;5027150;28;20104;-67
2021/10/13 04:39:31;;;;;;;7.28;3.83;;;6.90;96.20;;;;;;5016740;28;20029;-68
2021/10/13 04:41:57;;;;;;;6.85;4.45;;;6.90;96.20;;;;;;5024105;28;20029;-68
2021/10/13 04:44:23;;;;;;;7.80;4.28;;;6.90;95.90;;;;;;5025327;28;20482;-68
2021/10/13 04:46:48;;;;;;;9.02;4.68;;;7.00;95.90;;;;;;5024143;28;20029;-68
2021/10/13 04:49:14;;;;;;;7.32;4.95;;;6.80;95.30;;;;;;5026226;28;20017;-68
2021/10/13 04:51:40;;;;;;;6.78;4.03;;;6.80;95.50;;;;;;5026163;28;20513;-68
2021/10/13 04:54:06;;;;;;;8.13;5.25;;;6.80;95.90;;;;;;5027953;28;20112;-68
2021/10/13 04:56:31;;;;;;;8.23;4.15;;;6.80;96.20;;;;;;5027811;28;20029;-68
2021/10/13 04:58:57;;;;;;;7.18;4.38;;;6.90;96.30;;;;;;5024638;28;20029;-67
2021/10/13 05:01:22;;;;;;;6.97;4.22;;;6.80;96.30;;;;;;5022569;28;20402;-68
2021/10/13 05:03:48;;;;;;;8.45;4.95;;;6.70;96.30;;;;;;5025362;28;20101;-68
2021/10/13 05:06:14;;;;;;;9.60;4.78;;;6.60;97.20;;;;;;5027977;28;20017;-68
2021/10/13 05:08:39;;;;;;;6.60;4.30;;;6.60;96.80;;;;;;5029290;28;20390;-68
2021/10/13 05:11:05;;;;;;;8.80;4.60;;;6.60;96.80;;;;;;5026663;28;20386;-68
2021/10/13 05:13:30;;;;;;;8.57;4.25;;;6.50;96.80;;;;;;5025763;28;20558;-68
2021/10/13 05:15:56;;;;;;;9.43;4.88;;;6.40;97.00;;;;;;5026448;28;20041;-68
2021/10/13 05:18:22;;;;;;;7.90;4.72;;;6.40;97.10;;;;;;5024697;28;20482;-67
2021/10/13 05:20:48;;;;;;;8.23;4.93;;;6.50;97.00;;;;;;5040264;28;20053;-68
2021/10/13 05:23:13;;;;;;;8.98;4.78;;;6.50;96.70;;;;;;5022383;28;20497;-67
2021/10/13 05:25:39;;;;;;;7.78;4.82;;;6.50;96.90;;;;;;5025456;28;20021;-67
2021/10/13 05:28:05;;;;;;;9.00;5.43;;;6.50;97.20;;;;;;5025337;28;20482;-67
2021/10/13 05:30:30;;;;;;;8.10;5.22;;;6.50;96.90;;;;;;5026402;28;20033;-67
2021/10/13 05:32:56;;;;;;;8.52;4.93;;;6.50;97.10;;;;;;5027341;28;20061;-67
2021/10/13 05:35:22;;;;;;;7.93;4.45;;;6.50;97.00;;;;;;5028615;28;20021;-67
2021/10/13 05:37:48;;;;;;;6.88;4.30;;;6.50;97.00;;;;;;5020676;28;20052;-67
2021/10/13 05:40:13;;;;;;;8.23;4.57;;;6.60;96.30;;;;;;5028318;28;20390;-67
2021/10/13 05:42:39;;;;;;;5.85;4.80;;;6.60;96.40;;;;;;5026814;28;20147;-67
2021/10/13 05:45:05;;;;;;;11.88;5.63;;;6.60;96.50;;;;;;5026466;28;20635;-67
2021/10/13 05:47:31;;;;;;;8.50;4.90;;;6.50;96.80;;;;;;5026203;28;20617;-67
2021/10/13 05:49:57;;;;;;;10.90;5.88;;;6.50;96.80;;;;;;5027099;28;20029;-67
2021/10/13 05:52:22;;;;;;;8.10;4.80;;;6.50;96.60;;;;;;5025400;28;20029;-67
2021/10/13 05:54:49;;;;;;;7.75;4.72;;;6.60;96.60;;;;;;5023964;28;20025;-68
2021/10/13 05:57:15;;;;;;;8.02;4.20;;;6.50;96.70;;;;;;5025294;28;20080;-67
2021/10/13 05:59:42;;;;;;;9.48;4.47;;;6.50;96.80;;;;;;5024942;28;20037;-68
2021/10/13 06:02:08;;;;;;;8.50;4.82;;;6.50;97.20;;;;;;5025061;28;20101;-67
2021/10/13 06:04:34;;;;;;;7.60;4.50;;;6.50;97.30;;;;;;5027928;28;20029;-67
2021/10/13 06:06:59;;;;;;;8.68;4.03;;;6.60;97.20;;;;;;5028579;28;20045;-67
2021/10/13 06:09:25;;;;;;;6.15;4.20;;;6.60;97.00;;;;;;5027595;28;20018;-67
2021/10/13 06:11:51;;;;;;;5.70;4.05;;;6.50;96.80;;;;;;5026821;28;20501;-67
2021/10/13 06:14:16;;;;;;;9.45;5.13;;;6.50;96.90;;;;;;5026954;28;20037;-67
2021/10/13 06:16:42;;;;;;;8.50;4.85;;;6.50;97.00;;;;;;5029109;28;20079;-67
2021/10/13 06:19:08;;;;;;;8.68;4.95;;;6.50;97.10;;;;;;5026376;28;20111;-67
2021/10/13 06:21:33;;;;;;;9.13;4.68;;;6.50;97.30;;;;;;5027382;28;20049;-67
2021/10/13 06:23:59;;;;;;;7.03;4.30;;;6.50;97.40;;;;;;5025981;28;20033;-68
2021/10/13 06:26:25;;;;;;;7.45;4.15;;;6.50;97.60;;;;;;5031714;28;20394;-67
2021/10/13 06:28:50;;;;;;;9.85;5.22;;;6.60;97.50;;;;;;5027699;28;20104;-68
2021/10/13 06:31:16;;;;;;;7.13;4.72;;;6.50;97.50;;;;;;5029856;28;20041;-67
2021/10/13 06:33:42;;;;;;;6.22;3.70;;;6.60;97.40;;;;;;5031284;28;20115;-68
2021/10/13 06:36:09;;;;;;;6.03;4.10;;;6.50;97.30;;;;;;5028325;28;20026;-68
2021/10/13 06:38:36;;;;;;;5.72;3.78;;;6.60;97.40;;;;;;5026274;28;20021;-67
2021/10/13 06:41:03;;;;;;;7.65;4.40;;;6.60;97.50;;;;;;5026529;28;20033;-67
2021/10/13 06:43:29;;;;;;;6.45;4.20;;;6.60;97.60;;;;;;5024517;28;20030;-67
2021/10/13 06:45:55;;;;;;;5.40;4.00;;;6.60;97.90;;;;;;5024941;28;20681;-67
2021/10/13 06:48:21;;;;;;;8.18;5.30;;;6.60;97.70;;;;;;5025085;28;20115;-67
2021/10/13 06:50:47;;;;;;;9.50;4.57;;;6.60;98.20;;;;;;5023269;28;20029;-68
2021/10/13 06:53:14;;;;;;;7.72;4.55;;;6.70;97.80;;;;;;5025918;28;20025;-67
2021/10/13 06:55:39;;;;;;;7.97;4.38;;;6.70;97.80;;;;;;5022910;28;20032;-67
2021/10/13 06:58:05;;;;;;;8.57;4.70;;;6.70;97.80;;;;;;5021374;28;20053;-67
2021/10/13 07:00:31;;;;;;;7.05;4.20;;;6.70;97.90;;;;;;5026682;28;20021;-67
2021/10/13 07:02:57;;;;;;;8.85;5.15;;;6.80;97.80;;;;;;5029353;28;20410;-67
2021/10/13 07:05:22;;;;;;;7.93;4.85;;;6.80;97.80;;;;;;5018332;28;20152;-68
2021/10/13 07:07:50;;;;;;;8.32;4.95;;;6.80;98.10;;;;;;5027071;28;20026;-67
2021/10/13 07:10:17;;;;;;;8.82;5.30;;;6.80;97.90;;;;;;5023198;28;20043;-68
2021/10/13 07:12:43;;;;;;;8.18;4.65;;;6.80;97.70;;;;;;5024956;28;20085;-68
2021/10/13 07:15:10;;;;;;;9.18;4.85;;;6.80;97.70;;;;;;5021091;28;20056;-68
2021/10/13 07:17:36;;;;;;;8.73;4.93;;;6.80;97.70;;;;;;5022488;28;20048;-68
2021/10/13 07:20:04;;;;;;;7.18;4.75;;;6.80;97.50;;;;;;5024743;28;20044;-67
2021/10/13 07:22:30;;;;;;;;;;;6.80;97.60;;;;;;5030400;28;20512;-67
2021/10/13 07:24:57;;;;;;;6.85;5.25;;;6.80;97.30;;;;;;5020330;28;19918;-67
2021/10/13 07:27:23;;;;;;;9.73;5.10;;;6.90;97.30;;;;;;5022147;28;20029;-67
2021/10/13 07:29:56;;;;;;;8.07;4.82;;;6.90;97.40;;;;;;5018752;28;20039;-67
2021/10/13 07:32:23;;;;;;;7.20;4.80;;;6.90;97.30;;;;;;5039534;28;20108;-67
2021/10/13 07:34:49;;;;;;;7.22;4.85;;;6.90;97.20;;;;;;5021339;28;20068;-67
2021/10/13 07:37:15;;;;;;;7.78;4.68;;;6.90;97.10;;;;;;5024558;28;20108;-67
2021/10/13 07:39:40;;;;;;;6.05;4.47;;;6.90;97.10;;;;;;5022922;28;20501;-67
2021/10/13 07:42:06;;;;;;;5.28;4.28;;;6.90;97.20;;;;;;5019133;28;20025;-68
2021/10/13 07:44:32;;;;;;;8.07;5.15;;;6.90;96.50;;;;;;5023673;28;20037;-67
2021/10/13 07:46:57;;;;;;;5.82;3.97;;;6.90;96.70;;;;;;5020811;28;20516;-67
2021/10/13 07:49:23;;;;;;;8.10;4.90;;;7.00;96.80;;;;;;5018700;28;20030;-67
2021/10/13 07:51:49;;;;;;;6.50;3.95;;;7.00;96.80;;;;;;5023251;28;20036;-68
2021/10/13 07:54:15;;;;;;;6.75;4.40;;;7.10;96.60;;;;;;5020091;28;20490;-68
2021/10/13 07:56:41;;;;;;;6.88;4.22;;;7.10;96.80;;;;;;5023740;28;20029;-68
2021/10/13 07:59:06;;;;;;;7.10;4.30;;;7.10;96.20;;;;;;5020899;28;20036;-68
2021/10/13 08:01:32;;;;;;;5.43;4.18;;;7.10;96.00;;;;;;5019727;28;20045;-67
2021/10/13 08:03:57;;;;;;;5.55;3.63;;;7.10;95.70;;;;;;5019321;28;20030;-68
2021/10/13 08:06:23;;;;;;;5.65;4.63;;;7.20;95.70;;;;;;5018376;28;20029;-68
2021/10/13 08:08:49;;;;;;;6.97;5.07;;;7.10;95.60;;;;;;5018822;28;20021;-68
2021/10/13 08:11:14;;;;;;;10.15;4.45;;;7.10;95.50;;;;;;5022537;28;20034;-68
2021/10/13 08:13:40;;;;;;;5.93;4.50;;;7.10;95.30;;;;;;5021733;28;20034;-68
2021/10/13 08:16:05;;;;;;;8.32;4.55;;;7.10;95.40;;;;;;5032942;28;20026;-67
2021/10/13 08:18:32;;;;;;;6.53;4.95;;;7.10;95.60;;;;;;5024517;28;20060;-67
2021/10/13 08:20:58;;;;;;;8.20;4.32;;;7.20;95.90;;;;;;5018415;28;20461;-67
2021/10/13 08:23:24;;;;;;;6.72;4.78;;;7.20;95.40;;;;;;5021813;28;20075;-67
2021/10/13 08:25:51;;;;;;;7.70;4.53;;;7.20;95.60;;;;;;5019967;28;20525;-68
2021/10/13 08:28:16;;;;;;;8.80;4.88;;;7.20;94.50;;;;;;5020229;28;20029;-67
2021/10/13 08:30:42;;;;;;;6.68;4.18;;;7.30;94.80;;;;;;5021904;28;20045;-69
2021/10/13 08:33:07;;;;;;;5.22;3.85;;;7.30;94.90;;;;;;5020209;28;20041;-68
2021/10/13 08:35:33;;;;;;;5.30;3.75;;;7.40;95.30;;;;;;5020754;28;20041;-68
2021/10/13 08:37:59;;;;;;;6.88;4.60;;;7.40;95.50;;;;;;5021474;28;20053;-68
2021/10/13 08:40:24;;;;;;;6.30;4.57;;;7.50;95.30;;;;;;5017592;28;21642;-67
2021/10/13 08:42:53;;;;;;;6.18;3.95;;;7.40;94.90;;;;;;5020056;28;20033;-68
2021/10/13 08:45:19;;;;;;;7.30;4.50;;;7.40;94.60;;;;;;5023862;28;20491;-68
2021/10/13 08:47:44;;;;;;;6.65;5.38;;;7.50;94.80;;;;;;5029536;28;20037;-68
2021/10/13 08:50:10;;;;;;;7.45;5.18;;;7.50;94.60;;;;;;5029829;28;20036;-68
2021/10/13 08:52:35;;;;;;;7.68;4.70;;;7.50;95.00;;;;;;5029835;28;20029;-67
2021/10/13 08:55:01;;;;;;;6.38;4.53;;;7.50;94.80;;;;;;5021714;28;20044;-68
2021/10/13 08:57:28;;;;;;;10.18;4.65;;;7.50;94.50;;;;;;5022599;28;20031;-68
2021/10/13 08:59:54;;;;;;;7.40;4.10;;;7.60;94.60;;;;;;5021586;28;20029;-68
2021/10/13 09:02:44;;;;;;;7.05;4.32;;;7.60;94.80;;;;;;5020969;28;20581;-70
2021/10/13 09:05:11;;;;;;;6.35;4.07;;;7.60;94.90;;;;;;5022010;28;20517;-68
2021/10/13 09:07:40;;;;;;;6.97;4.35;;;7.70;95.00;;;;;;5023823;28;20029;-68
2021/10/13 09:10:06;;;;;;;6.53;4.13;;;7.70;95.10;;;;;;5022582;28;20367;-67
2021/10/13 09:12:38;;;;;;;5.35;3.47;;;7.70;94.60;;;;;;5024551;28;20480;-67
2021/10/13 09:15:10;;;;;;;3.88;3.47;;;7.70;94.50;;;;;;5018821;28;20056;-67
2021/10/13 09:17:59;;;;;;;5.20;3.13;;;7.60;93.70;;;;;;5020899;28;20021;-67
2021/10/13 09:20:37;;;;;;;5.60;4.15;;;7.60;93.80;;;;;;5017937;28;20402;-68
2021/10/13 09:23:20;;;;;;;5.18;3.70;;;7.70;94.50;;;;;;5021985;28;20030;-69
2021/10/13 09:26:09;;;;;;;6.90;3.65;;;7.70;93.90;;;;;;5019269;28;20094;-67
2021/10/13 09:28:36;;;;;;;7.32;3.75;;;7.70;94.70;;;;;;5035341;28;20597;-67
2021/10/13 09:31:15;;;;;;;5.40;4.07;;;7.70;93.70;;;;;;5022076;28;20113;-67
2021/10/13 09:34:06;;;;;;;6.38;3.78;;;7.70;93.90;;;;;;5019021;28;20174;-67
2021/10/13 09:36:43;;;;;;;4.13;2.92;;;7.70;93.00;;;;;;5021154;28;20022;-67
2021/10/13 09:39:10;;;;;;;4.15;3.00;;;7.70;92.80;;;;;;5023155;28;20025;-67
2021/10/13 09:41:56;;;;;;;5.68;3.70;;;7.80;93.50;;;;;;5028147;28;20396;-69
2021/10/13 09:44:21;;;;;;;5.30;3.30;;;7.90;93.90;;;;;;5023824;28;20112;-67
2021/10/13 09:46:55;;;;;;;4.40;2.95;;;7.90;93.40;;;;;;5020258;28;20120;-67
2021/10/13 09:49:33;;;;;;;3.58;2.80;;;8.00;93.10;;;;;;5021232;28;20057;-67
2021/10/13 09:52:06;;;;;;;4.47;3.20;;;8.00;92.20;;;;;;5025255;28;20052;-67
2021/10/13 09:54:32;;;;;;;3.53;2.47;;;8.00;92.30;;;;;;5024529;28;20030;-67
2021/10/13 09:56:57;;;;;;;4.18;2.97;;;8.00;92.40;;;;;;5028318;28;20047;-67
2021/10/13 09:59:23;;;;;;;4.88;3.03;;;8.00;91.70;;;;;;5019838;28;20029;-67
2021/10/13 10:01:57;;;;;;;4.68;2.97;;;8.10;92.50;;;;;;5023782;28;20131;-67
2021/10/13 10:04:25;;;;;;;3.03;2.50;;;8.10;91.40;;;;;;5023889;28;20030;-67
2021/10/13 10:06:57;;;;;;;6.68;2.97;;;8.10;91.20;;;;;;5025083;28;20017;-68
2021/10/13 10:09:25;;;;;;;4.15;2.90;;;8.20;91.90;;;;;;5024313;28;20033;-67
2021/10/13 10:12:08;;;;;;;3.58;2.70;;;8.20;90.90;;;;;;5024333;28;20511;-68
2021/10/13 10:14:35;;;;;;;3.28;2.78;;;8.20;90.40;;;;;;5023849;28;20103;-67
2021/10/13 10:17:02;;;;;;;5.18;2.85;;;8.30;92.00;;;;;;5022778;28;20445;-67
2021/10/13 10:19:43;;;;;;;4.07;2.63;;;8.30;90.90;;;;;;5023193;28;20079;-67
2021/10/13 10:22:18;;;;;;;5.45;2.55;;;8.30;91.30;;;;;;5023427;28;20036;-68
2021/10/13 10:24:53;;;;;;;3.45;2.30;;;8.30;90.10;;;;;;5025635;28;20037;-68
2021/10/13 10:27:29;;;;;;;4.30;2.80;;;8.40;90.20;;;;;;5024357;28;20118;-67
2021/10/13 10:30:03;;;;;;;3.17;2.60;;;8.60;89.70;;;;;;5023426;28;20030;-67
2021/10/13 10:32:29;;;;;;;6.65;2.50;;;8.70;90.10;;;;;;5021951;28;20045;-68
2021/10/13 10:35:03;;;;;;;3.95;2.10;;;8.70;87.80;;;;;;5025024;28;20854;-67
2021/10/13 10:37:41;;;;;;;4.55;2.80;;;8.70;89.40;;;;;;5021904;28;20036;-67
2021/10/13 10:40:10;;;;;;;3.10;2.63;;;8.80;89.00;;;;;;5022739;28;20057;-68
2021/10/13 10:42:55;;;;;;;4.57;2.72;;;8.70;87.70;;;;;;5021565;28;20068;-68
2021/10/13 10:45:33;;;;;;;3.58;2.47;;;8.70;88.50;;;;;;5019852;28;20032;-67
2021/10/13 10:48:01;;;;;;;4.63;2.75;;;8.70;89.00;;;;;;5023803;28;20136;-68
2021/10/13 10:50:27;;;;;;;4.18;2.65;;;8.60;90.00;;;;;;5023329;28;20033;-68
2021/10/13 10:53:22;;;;;;;2.08;1.85;;;8.70;89.90;;;;;;5022128;28;20526;-68
2021/10/13 10:55:50;;;;;;;2.53;1.98;;;8.70;88.50;;;;;;5022293;28;20029;-68
2021/10/13 10:58:29;;;;;;;3.42;2.30;;;8.70;89.00;;;;;;5022290;28;20092;-68
2021/10/13 11:01:10;;;;;;;3.55;2.10;;;8.80;89.40;;;;;;5016959;28;20080;-67
2021/10/13 11:03:38;;;;;;;4.00;2.42;;;8.80;88.90;;;;;;5023987;28;20056;-67
2021/10/13 11:06:09;;;;;;;3.08;2.10;;;8.90;88.50;;;;;;5020839;28;20025;-67
2021/10/13 11:08:35;;;;;;;3.58;2.80;;;8.90;90.10;;;;;;5019600;28;20059;-67
2021/10/13 11:11:14;;;;;;;3.05;2.00;;;8.90;88.60;;;;;;5022929;28;20029;-67
2021/10/13 11:13:40;;;;;;;3.42;2.00;;;8.90;89.30;;;;;;5024452;28;20057;-68
2021/10/13 11:16:09;;;;;;;2.05;1.85;;;9.00;88.70;;;;;;5023183;28;20202;-68
2021/10/13 11:18:35;;;;;;;1.95;1.65;;;8.90;88.00;;;;;;5022880;28;20038;-68
2021/10/13 11:21:10;;;;;;;4.90;1.90;;;9.00;89.20;;;;;;5021876;28;20391;-68
2021/10/13 11:23:36;;;;;;;2.22;1.60;;;9.10;87.40;;;;;;5020607;28;20030;-68
2021/10/13 11:26:02;;;;;;;1.20;1.20;;;9.10;85.40;;;;;;5022871;28;20080;-68
2021/10/13 11:28:35;;;;;;;3.25;1.52;;;9.10;83.30;;;;;;5022607;28;20033;-68
2021/10/13 11:31:06;;;;;;;2.22;1.48;;;9.00;82.60;;;;;;5020077;28;20033;-67
2021/10/13 11:33:32;;;;;;;1.92;1.40;;;9.00;83.70;;;;;;5023621;28;20104;-67
2021/10/13 11:36:18;;;;;;;2.13;1.30;;;8.90;82.40;;;;;;5020156;28;20552;-67
2021/10/13 11:38:43;;;;;;;1.45;1.35;;;8.90;81.70;;;;;;5021169;28;20452;-68
2021/10/13 11:41:13;;;;;;;1.45;1.35;;;9.00;82.80;;;;;;5021762;28;20033;-67
2021/10/13 11:43:39;;;;;;;2.70;1.58;;;9.00;82.20;;;;;;5020797;28;20032;-68
2021/10/13 11:46:06;;;;;;;1.13;1.10;;;9.00;83.20;;;;;;5020564;28;20030;-67
2021/10/13 11:48:34;;;;;;;2.60;1.65;;;9.10;83.30;;;;;;5022727;28;20034;-67
2021/10/13 11:51:08;;;;;;;2.75;1.40;;;9.30;84.30;;;;;;5019261;28;20114;-68
2021/10/13 11:53:33;;;;;;;2.90;1.35;;;9.50;83.90;;;;;;5017949;28;20044;-67
2021/10/13 11:56:07;;;;;;;1.70;1.08;;;9.50;83.30;;;;;;5022195;28;20025;-67
2021/10/13 11:58:32;;;;;;;1.50;1.40;;;9.60;82.40;;;;;;5037608;28;20169;-67
2021/10/13 12:00:58;;;;;;;1.80;1.33;;;9.50;81.60;;;;;;5022323;28;20037;-67
2021/10/13 12:03:28;;;;;;;1.45;1.35;;;9.60;83.90;;;;;;5019829;28;20550;-68
2021/10/13 12:05:58;;;;;;;2.17;1.27;;;9.70;81.50;;;;;;5019694;28;20074;-68
2021/10/13 12:08:30;;;;;;;1.75;1.42;;;9.70;84.10;;;;;;5014057;28;20116;-67
2021/10/13 12:11:18;;;;;;;2.05;1.48;;;9.80;84.20;;;;;;5019255;28;20551;-67
2021/10/13 12:13:50;;;;;;;1.63;1.00;;;9.90;82.60;;;;;;5019784;28;20756;-68
2021/10/13 12:16:23;;;;;;;2.13;1.20;;;10.10;80.00;;;;;;5023487;28;20025;-68
2021/10/13 12:18:50;;;;;;;1.73;1.10;;;10.10;81.30;;;;;;5019473;28;20036;-68
2021/10/13 12:21:19;;;;;;;2.17;1.52;;;10.20;82.40;;;;;;5020766;28;20030;-67
2021/10/13 12:23:48;;;;;;;1.60;1.50;;;10.40;82.70;;;;;;5017181;28;20024;-67
2021/10/13 12:26:29;;;;;;;1.98;1.73;;;10.40;81.70;;;;;;5020772;28;20506;-68
2021/10/13 12:28:57;;;;;;;1.58;1.00;;;10.30;80.50;;;;;;5019022;28;21113;-69
2021/10/13 12:31:27;;;;;;;;;;;10.40;79.80;;;;;;5020941;28;20121;-68
2021/10/13 12:34:15;;;;;;;1.20;1.10;;;10.50;81.60;;;;;;5022527;28;19921;-68
2021/10/13 12:36:54;;;;;;;2.15;1.13;;;10.40;79.20;;;;;;5021195;28;20116;-67
2021/10/13 12:39:29;;;;;;;2.58;1.20;;;10.50;80.00;;;;;;5022979;28;20414;-68
2021/10/13 12:42:03;;;;;;;1.10;1.00;;;10.60;80.00;;;;;;5022581;28;20036;-68
2021/10/13 12:44:29;;;;;;;2.13;1.00;;;10.60;78.70;;;;;;5021658;28;20028;-68
2021/10/13 12:47:00;;;;;;;1.58;0.93;;;10.60;76.80;;;;;;5021039;28;20107;-68
2021/10/13 12:49:32;;;;;;;1.40;1.08;;;10.60;79.50;;;;;;5021722;28;20047;-68
2021/10/13 12:52:00;;;;;;;1.20;1.10;;;10.60;79.10;;;;;;5019605;28;20056;-68
2021/10/13 12:54:30;;;;;;;3.70;1.10;;;10.60;78.20;;;;;;5023576;28;20490;-68
2021/10/13 12:56:57;;;;;;;1.45;1.27;;;10.50;77.80;;;;;;5018846;28;20029;-67
2021/10/13 12:59:23;;;;;;;1.60;1.23;;;10.50;81.80;;;;;;5021823;28;20033;-67
2021/10/13 13:01:50;;;;;;;1.50;1.40;;;10.40;82.00;;;;;;5021150;28;20038;-67
2021/10/13 13:04:16;;;;;;;0.82;0.82;;;10.50;79.80;;;;;;5019725;28;20390;-67
2021/10/13 13:06:41;;;;;;;2.05;1.00;;;10.40;76.80;;;;;;5022518;28;20021;-68
2021/10/13 13:09:08;;;;;;;1.30;1.30;;;10.30;78.60;;;;;;5020643;28;20021;-68